This is the latest recevied weather packets stored in our database for station/object N5JXS. If no packets are shown the sender has not sent any weather packets the latest 1 day(s).
| Time | Temp. | Humidity | Pressure | Rain* | Wind** | Luminosity | Snow |
|---|---|---|---|---|---|---|---|
| 1836274639 | 12.78° C | 48% | 1026.8 hPa | 0 mm | 0.45 m/s, 106° | 0 W/m² | - |
| 1836274492 | 12.78° C | 50% | 1026.6 hPa | 0 mm | 0.45 m/s, 107° | 0 W/m² | - |
| 1836274337 | 12.78° C | 47% | 1027 hPa | 0 mm | 0 m/s | 0 W/m² | - |
| 1836274191 | 12.78° C | 49% | 1027 hPa | 0 mm | 0.45 m/s, 107° | 0 W/m² | - |
| 1836274036 | 12.78° C | 48% | 1027 hPa | 0 mm | 0 m/s | 0 W/m² | - |
| 1778022625 | 0.56° C | 98% | 1013.9 hPa | 1.78 mm | 0 m/s | 22 W/m² | - |
| 1778022321 | 0.56° C | 98% | 1013.6 hPa | 0 mm | 0 m/s | 23 W/m² | - |
| 1778022018 | 0.56° C | 98% | 1013.4 hPa | 0 mm | 0 m/s | 27 W/m² | - |
| 1778021715 | 0.56° C | 98% | 1013.3 hPa | 1.27 mm | 0.45 m/s, 2° | 26 W/m² | - |
| 1778021411 | 0.56° C | 98% | 1013.1 hPa | 1.27 mm | 0 m/s | 26 W/m² | - |
| 1778021108 | 0.56° C | 98% | 1013.1 hPa | 0 mm | 0.45 m/s, 13° | 34 W/m² | - |
| 1778020805 | 0.56° C | 98% | 1013.1 hPa | 0 mm | 0 m/s | 39 W/m² | - |
| 1778020502 | 0.56° C | 98% | 1013.1 hPa | 0 mm | 0.45 m/s, 278° | 37 W/m² | - |
| 1778020198 | 0.56° C | 98% | 1013.3 hPa | 1.78 mm | 0.89 m/s, 331° | 32 W/m² | - |
| 1778019895 | 0.56° C | 98% | 1012.9 hPa | 1.78 mm | 0.45 m/s, 8° | 39 W/m² | - |
| 1778019590 | 0.56° C | 98% | 1013 hPa | 0 mm | 0.45 m/s, 29° | 42 W/m² | - |
| 1778019288 | 0.56° C | 98% | 1013 hPa | 0 mm | 0 m/s | 52 W/m² | - |
| 1778018985 | 0.56° C | 98% | 1013.1 hPa | 0 mm | 0 m/s | 60 W/m² | - |
| 1778018682 | 0.56° C | 98% | 1013.1 hPa | 0 mm | 0 m/s | 59 W/m² | - |
| 1778018379 | 0.56° C | 98% | 1013.4 hPa | 1.27 mm | 0.45 m/s, 256° | 40 W/m² | - |
| 1778018078 | 0.56° C | 98% | 1013.4 hPa | 1.27 mm | 0.45 m/s, 312° | 55 W/m² | - |
| 1778017775 | 0.56° C | 98% | 1013.5 hPa | 0 mm | 0 m/s | 56 W/m² | - |
| 1778017473 | 0.56° C | 98% | 1013.4 hPa | 0 mm | 0 m/s | 61 W/m² | - |
| 1778017170 | 0.56° C | 98% | 1013.5 hPa | 0 mm | 0 m/s | 51 W/m² | - |
| 1778016867 | 0.56° C | 98% | 1013.6 hPa | 0 mm | 0 m/s | 47 W/m² | - |
* Rain latest hour (hover to see other rain measurements)
** Current wind speed in m/s (hover to see current wind gust speed)